sensor_id;sensor_type;location;lat;lon;timestamp;temperature;humidity
31661;DHT22;18267;52.234;7.444;2023-06-24T00:01:35;19.10;99.90
31661;DHT22;18267;52.234;7.444;2023-06-24T00:04:02;19.00;99.90
31661;DHT22;18267;52.234;7.444;2023-06-24T00:06:27;19.00;99.90
31661;DHT22;18267;52.234;7.444;2023-06-24T00:08:53;18.90;99.90
31661;DHT22;18267;52.234;7.444;2023-06-24T00:11:27;18.70;99.90
31661;DHT22;18267;52.234;7.444;2023-06-24T00:13:53;18.70;99.90
31661;DHT22;18267;52.234;7.444;2023-06-24T00:16:19;18.80;99.90
31661;DHT22;18267;52.234;7.444;2023-06-24T00:18:52;18.80;99.90
31661;DHT22;18267;52.234;7.444;2023-06-24T00:21:18;18.70;99.90
31661;DHT22;18267;52.234;7.444;2023-06-24T00:23:45;18.70;99.90
31661;DHT22;18267;52.234;7.444;2023-06-24T00:26:10;18.70;99.90
31661;DHT22;18267;52.234;7.444;2023-06-24T00:28:36;18.50;99.90
31661;DHT22;18267;52.234;7.444;2023-06-24T00:31:01;18.60;99.90
31661;DHT22;18267;52.234;7.444;2023-06-24T00:33:28;18.60;99.90
31661;DHT22;18267;52.234;7.444;2023-06-24T00:35:53;18.50;99.90
31661;DHT22;18267;52.234;7.444;2023-06-24T00:38:21;18.40;99.90
31661;DHT22;18267;52.234;7.444;2023-06-24T00:40:47;18.40;99.90
31661;DHT22;18267;52.234;7.444;2023-06-24T00:43:13;18.30;99.90
31661;DHT22;18267;52.234;7.444;2023-06-24T00:45:39;18.30;99.90
31661;DHT22;18267;52.234;7.444;2023-06-24T00:48:05;18.30;99.90
31661;DHT22;18267;52.234;7.444;2023-06-24T00:50:31;18.40;99.90
31661;DHT22;18267;52.234;7.444;2023-06-24T00:52:57;18.40;99.90
31661;DHT22;18267;52.234;7.444;2023-06-24T00:55:22;18.50;99.90
31661;DHT22;18267;52.234;7.444;2023-06-24T00:57:50;18.40;99.90
31661;DHT22;18267;52.234;7.444;2023-06-24T01:00:18;18.20;99.90
31661;DHT22;18267;52.234;7.444;2023-06-24T01:02:47;18.10;99.90
31661;DHT22;18267;52.234;7.444;2023-06-24T01:05:13;18.00;99.90
31661;DHT22;18267;52.234;7.444;2023-06-24T01:07:40;18.20;99.90
31661;DHT22;18267;52.234;7.444;2023-06-24T01:10:08;18.20;99.90
31661;DHT22;18267;52.234;7.444;2023-06-24T01:12:34;18.20;99.90
31661;DHT22;18267;52.234;7.444;2023-06-24T01:15:01;18.10;99.90
31661;DHT22;18267;52.234;7.444;2023-06-24T01:17:35;18.00;99.90
31661;DHT22;18267;52.234;7.444;2023-06-24T01:20:19;17.90;99.90
31661;DHT22;18267;52.234;7.444;2023-06-24T01:28:23;17.90;99.90
31661;DHT22;18267;52.234;7.444;2023-06-24T01:36:29;17.90;99.90
31661;DHT22;18267;52.234;7.444;2023-06-24T01:39:00;17.90;99.90
31661;DHT22;18267;52.234;7.444;2023-06-24T01:41:31;17.70;99.90
31661;DHT22;18267;52.234;7.444;2023-06-24T01:43:59;17.70;99.90
31661;DHT22;18267;52.234;7.444;2023-06-24T01:46:28;17.70;99.90
31661;DHT22;18267;52.234;7.444;2023-06-24T01:48:58;17.70;99.90
31661;DHT22;18267;52.234;7.444;2023-06-24T01:51:26;17.70;99.90
31661;DHT22;18267;52.234;7.444;2023-06-24T01:54:03;17.60;99.90
31661;DHT22;18267;52.234;7.444;2023-06-24T01:56:30;17.60;99.90
31661;DHT22;18267;52.234;7.444;2023-06-24T01:58:58;17.50;99.90
31661;DHT22;18267;52.234;7.444;2023-06-24T02:01:26;17.50;99.90
31661;DHT22;18267;52.234;7.444;2023-06-24T02:03:54;17.50;99.90
31661;DHT22;18267;52.234;7.444;2023-06-24T02:06:22;17.50;99.90
31661;DHT22;18267;52.234;7.444;2023-06-24T02:08:50;17.70;99.90
31661;DHT22;18267;52.234;7.444;2023-06-24T02:11:18;17.60;99.90
31661;DHT22;18267;52.234;7.444;2023-06-24T02:13:44;17.60;99.90
31661;DHT22;18267;52.234;7.444;2023-06-24T02:16:11;17.60;99.90
31661;DHT22;18267;52.234;7.444;2023-06-24T02:18:39;17.50;99.90
31661;DHT22;18267;52.234;7.444;2023-06-24T02:21:09;17.60;99.90
31661;DHT22;18267;52.234;7.444;2023-06-24T02:23:36;17.70;99.90
31661;DHT22;18267;52.234;7.444;2023-06-24T02:26:03;17.80;99.90
31661;DHT22;18267;52.234;7.444;2023-06-24T02:28:31;17.70;99.90
31661;DHT22;18267;52.234;7.444;2023-06-24T02:30:58;17.70;99.90
31661;DHT22;18267;52.234;7.444;2023-06-24T02:33:24;17.60;99.90
31661;DHT22;18267;52.234;7.444;2023-06-24T02:35:50;17.40;99.90
31661;DHT22;18267;52.234;7.444;2023-06-24T02:38:15;17.30;99.90
31661;DHT22;18267;52.234;7.444;2023-06-24T02:40:46;17.30;99.90
31661;DHT22;18267;52.234;7.444;2023-06-24T02:43:13;17.30;99.90
31661;DHT22;18267;52.234;7.444;2023-06-24T02:45:39;17.20;99.90
31661;DHT22;18267;52.234;7.444;2023-06-24T02:48:06;17.10;99.90
31661;DHT22;18267;52.234;7.444;2023-06-24T02:50:33;17.10;99.90
31661;DHT22;18267;52.234;7.444;2023-06-24T02:52:59;17.20;99.90
31661;DHT22;18267;52.234;7.444;2023-06-24T02:55:26;17.00;99.90
31661;DHT22;18267;52.234;7.444;2023-06-24T02:57:52;16.90;99.90
31661;DHT22;18267;52.234;7.444;2023-06-24T03:00:18;16.90;99.90
31661;DHT22;18267;52.234;7.444;2023-06-24T03:02:47;17.00;99.90
31661;DHT22;18267;52.234;7.444;2023-06-24T03:05:14;17.10;99.90
31661;DHT22;18267;52.234;7.444;2023-06-24T03:07:41;17.00;99.90
31661;DHT22;18267;52.234;7.444;2023-06-24T03:10:07;17.00;99.90
31661;DHT22;18267;52.234;7.444;2023-06-24T03:12:33;17.00;99.90
31661;DHT22;18267;52.234;7.444;2023-06-24T03:14:59;16.90;99.90
31661;DHT22;18267;52.234;7.444;2023-06-24T03:17:26;17.00;99.90
31661;DHT22;18267;52.234;7.444;2023-06-24T03:19:54;17.00;99.90
31661;DHT22;18267;52.234;7.444;2023-06-24T03:22:20;17.10;99.90
31661;DHT22;18267;52.234;7.444;2023-06-24T03:24:46;17.10;99.90
31661;DHT22;18267;52.234;7.444;2023-06-24T03:27:12;17.20;99.90
31661;DHT22;18267;52.234;7.444;2023-06-24T03:29:38;17.30;99.90
31661;DHT22;18267;52.234;7.444;2023-06-24T03:32:03;17.30;99.90
31661;DHT22;18267;52.234;7.444;2023-06-24T03:34:29;17.30;99.90
31661;DHT22;18267;52.234;7.444;2023-06-24T03:36:55;17.40;99.90
31661;DHT22;18267;52.234;7.444;2023-06-24T03:39:21;17.60;99.90
31661;DHT22;18267;52.234;7.444;2023-06-24T03:41:46;17.60;99.90
31661;DHT22;18267;52.234;7.444;2023-06-24T03:44:12;17.50;99.90
31661;DHT22;18267;52.234;7.444;2023-06-24T03:46:40;17.60;99.90
31661;DHT22;18267;52.234;7.444;2023-06-24T03:49:05;17.60;99.90
31661;DHT22;18267;52.234;7.444;2023-06-24T03:51:31;17.60;99.90
31661;DHT22;18267;52.234;7.444;2023-06-24T03:53:57;17.70;99.90
31661;DHT22;18267;52.234;7.444;2023-06-24T03:56:23;17.80;99.90
31661;DHT22;18267;52.234;7.444;2023-06-24T03:58:48;17.80;99.90
31661;DHT22;18267;52.234;7.444;2023-06-24T04:01:14;17.80;99.90
31661;DHT22;18267;52.234;7.444;2023-06-24T04:03:39;17.70;99.90
31661;DHT22;18267;52.234;7.444;2023-06-24T04:06:05;17.60;99.90
31661;DHT22;18267;52.234;7.444;2023-06-24T04:08:31;17.70;99.90
31661;DHT22;18267;52.234;7.444;2023-06-24T04:10:57;17.70;99.90
31661;DHT22;18267;52.234;7.444;2023-06-24T04:13:25;18.00;99.90
31661;DHT22;18267;52.234;7.444;2023-06-24T04:15:51;18.10;99.90
31661;DHT22;18267;52.234;7.444;2023-06-24T04:18:17;18.30;99.90
31661;DHT22;18267;52.234;7.444;2023-06-24T04:20:42;18.30;99.90
31661;DHT22;18267;52.234;7.444;2023-06-24T04:23:08;18.40;99.90
31661;DHT22;18267;52.234;7.444;2023-06-24T04:25:36;18.50;99.90
31661;DHT22;18267;52.234;7.444;2023-06-24T04:28:02;18.60;99.90
31661;DHT22;18267;52.234;7.444;2023-06-24T04:30:30;18.70;99.90
31661;DHT22;18267;52.234;7.444;2023-06-24T04:32:55;18.80;99.90
31661;DHT22;18267;52.234;7.444;2023-06-24T04:35:21;18.90;99.90
31661;DHT22;18267;52.234;7.444;2023-06-24T04:37:46;19.00;99.90
31661;DHT22;18267;52.234;7.444;2023-06-24T04:40:14;19.00;99.90
31661;DHT22;18267;52.234;7.444;2023-06-24T04:42:40;19.10;99.90
31661;DHT22;18267;52.234;7.444;2023-06-24T04:45:06;19.10;99.90
31661;DHT22;18267;52.234;7.444;2023-06-24T04:47:31;19.10;99.90
31661;DHT22;18267;52.234;7.444;2023-06-24T04:49:57;19.00;99.90
31661;DHT22;18267;52.234;7.444;2023-06-24T04:52:25;19.10;99.90
31661;DHT22;18267;52.234;7.444;2023-06-24T04:54:51;19.20;99.90
31661;DHT22;18267;52.234;7.444;2023-06-24T04:57:26;19.10;99.90
31661;DHT22;18267;52.234;7.444;2023-06-24T04:59:53;19.20;99.90
31661;DHT22;18267;52.234;7.444;2023-06-24T05:02:18;19.40;99.90
31661;DHT22;18267;52.234;7.444;2023-06-24T05:04:44;19.40;99.90
31661;DHT22;18267;52.234;7.444;2023-06-24T05:07:09;19.50;99.90
31661;DHT22;18267;52.234;7.444;2023-06-24T05:09:35;19.50;99.90
31661;DHT22;18267;52.234;7.444;2023-06-24T05:12:04;19.50;99.90
31661;DHT22;18267;52.234;7.444;2023-06-24T05:14:30;19.50;99.90
31661;DHT22;18267;52.234;7.444;2023-06-24T05:16:55;19.60;99.90
31661;DHT22;18267;52.234;7.444;2023-06-24T05:19:21;19.80;99.90
31661;DHT22;18267;52.234;7.444;2023-06-24T05:21:46;20.00;99.90
31661;DHT22;18267;52.234;7.444;2023-06-24T05:24:12;20.20;99.90
31661;DHT22;18267;52.234;7.444;2023-06-24T05:26:37;20.30;99.90
31661;DHT22;18267;52.234;7.444;2023-06-24T05:29:03;20.40;99.90
31661;DHT22;18267;52.234;7.444;2023-06-24T05:31:28;20.50;99.90
31661;DHT22;18267;52.234;7.444;2023-06-24T05:33:54;20.60;99.90
31661;DHT22;18267;52.234;7.444;2023-06-24T05:36:20;20.70;99.90
31661;DHT22;18267;52.234;7.444;2023-06-24T05:38:45;20.70;99.90
31661;DHT22;18267;52.234;7.444;2023-06-24T05:41:12;20.70;99.90
31661;DHT22;18267;52.234;7.444;2023-06-24T05:43:37;20.60;99.90
31661;DHT22;18267;52.234;7.444;2023-06-24T05:46:03;20.60;99.90
31661;DHT22;18267;52.234;7.444;2023-06-24T05:48:29;20.60;99.90
31661;DHT22;18267;52.234;7.444;2023-06-24T05:50:55;20.60;99.90
31661;DHT22;18267;52.234;7.444;2023-06-24T05:53:21;20.60;99.90
31661;DHT22;18267;52.234;7.444;2023-06-24T05:55:47;20.60;99.90
31661;DHT22;18267;52.234;7.444;2023-06-24T05:58:12;20.70;99.90
31661;DHT22;18267;52.234;7.444;2023-06-24T06:00:38;20.70;99.90
31661;DHT22;18267;52.234;7.444;2023-06-24T06:03:03;20.80;99.90
31661;DHT22;18267;52.234;7.444;2023-06-24T06:05:29;21.00;99.90
31661;DHT22;18267;52.234;7.444;2023-06-24T06:07:55;21.10;99.90
31661;DHT22;18267;52.234;7.444;2023-06-24T06:10:20;21.10;99.90
31661;DHT22;18267;52.234;7.444;2023-06-24T06:12:47;21.10;99.90
31661;DHT22;18267;52.234;7.444;2023-06-24T06:15:14;21.00;99.90
31661;DHT22;18267;52.234;7.444;2023-06-24T06:17:40;21.00;99.90
31661;DHT22;18267;52.234;7.444;2023-06-24T06:20:06;21.10;99.90
31661;DHT22;18267;52.234;7.444;2023-06-24T06:22:35;21.10;99.90
31661;DHT22;18267;52.234;7.444;2023-06-24T06:25:06;21.20;99.90
31661;DHT22;18267;52.234;7.444;2023-06-24T06:27:34;21.30;99.90
31661;DHT22;18267;52.234;7.444;2023-06-24T06:30:00;21.30;99.90
31661;DHT22;18267;52.234;7.444;2023-06-24T06:32:27;21.40;99.90
31661;DHT22;18267;52.234;7.444;2023-06-24T06:34:52;21.50;99.90
31661;DHT22;18267;52.234;7.444;2023-06-24T06:37:18;21.60;99.90
31661;DHT22;18267;52.234;7.444;2023-06-24T06:39:43;21.60;99.90
31661;DHT22;18267;52.234;7.444;2023-06-24T06:42:09;21.70;99.90
31661;DHT22;18267;52.234;7.444;2023-06-24T06:44:35;21.70;99.90
31661;DHT22;18267;52.234;7.444;2023-06-24T06:47:00;21.70;99.90
31661;DHT22;18267;52.234;7.444;2023-06-24T06:49:26;21.70;99.90
31661;DHT22;18267;52.234;7.444;2023-06-24T06:51:54;21.70;99.90
31661;DHT22;18267;52.234;7.444;2023-06-24T06:54:20;21.80;99.90
31661;DHT22;18267;52.234;7.444;2023-06-24T06:56:46;21.80;99.90
31661;DHT22;18267;52.234;7.444;2023-06-24T06:59:12;21.90;99.90
31661;DHT22;18267;52.234;7.444;2023-06-24T07:01:37;21.90;99.90
31661;DHT22;18267;52.234;7.444;2023-06-24T07:04:03;22.00;99.90
31661;DHT22;18267;52.234;7.444;2023-06-24T07:06:28;22.10;99.90
31661;DHT22;18267;52.234;7.444;2023-06-24T07:08:54;22.10;99.90
31661;DHT22;18267;52.234;7.444;2023-06-24T07:11:19;22.30;99.90
31661;DHT22;18267;52.234;7.444;2023-06-24T07:13:45;22.30;99.90
31661;DHT22;18267;52.234;7.444;2023-06-24T07:16:11;22.30;99.90
31661;DHT22;18267;52.234;7.444;2023-06-24T07:18:38;22.40;99.90
31661;DHT22;18267;52.234;7.444;2023-06-24T07:21:03;22.50;99.90
31661;DHT22;18267;52.234;7.444;2023-06-24T07:23:29;22.60;99.90
31661;DHT22;18267;52.234;7.444;2023-06-24T07:25:55;22.60;99.90
31661;DHT22;18267;52.234;7.444;2023-06-24T07:28:20;22.60;99.90
31661;DHT22;18267;52.234;7.444;2023-06-24T07:30:46;22.60;99.90
31661;DHT22;18267;52.234;7.444;2023-06-24T07:33:11;22.60;99.90
31661;DHT22;18267;52.234;7.444;2023-06-24T07:35:38;22.70;99.90
31661;DHT22;18267;52.234;7.444;2023-06-24T07:38:04;22.70;99.90
31661;DHT22;18267;52.234;7.444;2023-06-24T07:40:29;22.60;99.90
31661;DHT22;18267;52.234;7.444;2023-06-24T07:42:56;22.60;99.90
31661;DHT22;18267;52.234;7.444;2023-06-24T07:45:22;22.60;99.90
31661;DHT22;18267;52.234;7.444;2023-06-24T07:47:49;22.70;99.90
31661;DHT22;18267;52.234;7.444;2023-06-24T07:50:15;22.70;99.90
31661;DHT22;18267;52.234;7.444;2023-06-24T07:52:40;22.70;99.90
31661;DHT22;18267;52.234;7.444;2023-06-24T07:55:06;22.80;99.90
31661;DHT22;18267;52.234;7.444;2023-06-24T07:57:32;22.80;99.90
31661;DHT22;18267;52.234;7.444;2023-06-24T07:59:57;22.80;99.90
31661;DHT22;18267;52.234;7.444;2023-06-24T08:02:23;22.90;99.90
31661;DHT22;18267;52.234;7.444;2023-06-24T08:04:50;22.90;99.90
31661;DHT22;18267;52.234;7.444;2023-06-24T08:07:16;23.00;99.90
31661;DHT22;18267;52.234;7.444;2023-06-24T08:09:41;23.00;99.90
31661;DHT22;18267;52.234;7.444;2023-06-24T08:12:07;22.90;99.90
31661;DHT22;18267;52.234;7.444;2023-06-24T08:14:33;23.00;99.90
31661;DHT22;18267;52.234;7.444;2023-06-24T08:16:59;22.90;99.90
31661;DHT22;18267;52.234;7.444;2023-06-24T08:19:24;23.00;99.90
31661;DHT22;18267;52.234;7.444;2023-06-24T08:21:50;23.00;99.90
31661;DHT22;18267;52.234;7.444;2023-06-24T08:24:15;23.10;99.90
31661;DHT22;18267;52.234;7.444;2023-06-24T08:26:41;23.20;99.90
31661;DHT22;18267;52.234;7.444;2023-06-24T08:29:07;23.20;99.90
31661;DHT22;18267;52.234;7.444;2023-06-24T08:31:33;23.40;99.90
31661;DHT22;18267;52.234;7.444;2023-06-24T08:34:02;23.30;99.90
31661;DHT22;18267;52.234;7.444;2023-06-24T08:36:28;23.30;99.90
31661;DHT22;18267;52.234;7.444;2023-06-24T08:38:57;23.40;99.90
31661;DHT22;18267;52.234;7.444;2023-06-24T08:41:23;23.40;99.90
31661;DHT22;18267;52.234;7.444;2023-06-24T08:43:50;23.50;99.90
31661;DHT22;18267;52.234;7.444;2023-06-24T08:46:17;23.60;99.90
31661;DHT22;18267;52.234;7.444;2023-06-24T08:48:45;23.60;99.90
31661;DHT22;18267;52.234;7.444;2023-06-24T08:51:12;23.70;99.90
31661;DHT22;18267;52.234;7.444;2023-06-24T08:53:42;23.80;99.90
31661;DHT22;18267;52.234;7.444;2023-06-24T08:56:08;23.90;99.90
31661;DHT22;18267;52.234;7.444;2023-06-24T08:58:34;24.00;99.90
31661;DHT22;18267;52.234;7.444;2023-06-24T09:01:01;24.20;99.90
31661;DHT22;18267;52.234;7.444;2023-06-24T09:03:28;24.40;99.90
31661;DHT22;18267;52.234;7.444;2023-06-24T09:05:53;24.40;99.90
31661;DHT22;18267;52.234;7.444;2023-06-24T09:08:19;24.40;99.90
31661;DHT22;18267;52.234;7.444;2023-06-24T09:10:53;24.40;99.90
31661;DHT22;18267;52.234;7.444;2023-06-24T09:13:19;24.50;99.90
31661;DHT22;18267;52.234;7.444;2023-06-24T09:15:45;24.50;99.90
31661;DHT22;18267;52.234;7.444;2023-06-24T09:18:11;24.50;99.90
31661;DHT22;18267;52.234;7.444;2023-06-24T09:20:41;24.60;99.90
31661;DHT22;18267;52.234;7.444;2023-06-24T09:23:10;24.70;99.90
31661;DHT22;18267;52.234;7.444;2023-06-24T09:25:36;24.90;99.90
31661;DHT22;18267;52.234;7.444;2023-06-24T09:28:02;25.00;99.90
31661;DHT22;18267;52.234;7.444;2023-06-24T09:30:28;25.10;99.90
31661;DHT22;18267;52.234;7.444;2023-06-24T09:32:55;25.10;99.90
31661;DHT22;18267;52.234;7.444;2023-06-24T09:35:22;25.20;99.90
31661;DHT22;18267;52.234;7.444;2023-06-24T09:37:55;25.30;99.90
31661;DHT22;18267;52.234;7.444;2023-06-24T09:40:22;25.30;99.90
31661;DHT22;18267;52.234;7.444;2023-06-24T09:42:58;25.30;99.90
31661;DHT22;18267;52.234;7.444;2023-06-24T09:45:29;25.40;99.90
31661;DHT22;18267;52.234;7.444;2023-06-24T09:48:02;25.30;99.90
31661;DHT22;18267;52.234;7.444;2023-06-24T09:50:28;25.30;99.90
31661;DHT22;18267;52.234;7.444;2023-06-24T09:52:56;25.20;99.90
31661;DHT22;18267;52.234;7.444;2023-06-24T09:55:23;25.20;99.90
31661;DHT22;18267;52.234;7.444;2023-06-24T09:57:51;25.10;99.90
31661;DHT22;18267;52.234;7.444;2023-06-24T10:00:19;25.00;99.90
31661;DHT22;18267;52.234;7.444;2023-06-24T10:02:45;25.00;99.90
31661;DHT22;18267;52.234;7.444;2023-06-24T10:05:13;25.00;99.90
31661;DHT22;18267;52.234;7.444;2023-06-24T10:07:41;25.10;99.90
31661;DHT22;18267;52.234;7.444;2023-06-24T10:10:08;25.10;99.90
31661;DHT22;18267;52.234;7.444;2023-06-24T10:12:35;25.10;99.90
31661;DHT22;18267;52.234;7.444;2023-06-24T10:15:01;25.20;99.90
31661;DHT22;18267;52.234;7.444;2023-06-24T10:17:27;25.20;99.90
31661;DHT22;18267;52.234;7.444;2023-06-24T10:19:53;25.20;99.90
31661;DHT22;18267;52.234;7.444;2023-06-24T10:22:22;25.20;99.90
31661;DHT22;18267;52.234;7.444;2023-06-24T10:24:51;25.20;99.90
31661;DHT22;18267;52.234;7.444;2023-06-24T10:27:19;25.20;99.90
31661;DHT22;18267;52.234;7.444;2023-06-24T10:29:50;25.20;99.90
31661;DHT22;18267;52.234;7.444;2023-06-24T10:32:16;25.20;99.90
31661;DHT22;18267;52.234;7.444;2023-06-24T10:34:44;25.20;99.90
31661;DHT22;18267;52.234;7.444;2023-06-24T10:37:26;25.20;99.90
31661;DHT22;18267;52.234;7.444;2023-06-24T10:39:59;25.20;99.90
31661;DHT22;18267;52.234;7.444;2023-06-24T10:42:44;25.20;99.90
31661;DHT22;18267;52.234;7.444;2023-06-24T10:47:51;25.40;99.90
31661;DHT22;18267;52.234;7.444;2023-06-24T10:50:22;25.50;99.90
31661;DHT22;18267;52.234;7.444;2023-06-24T10:52:50;25.50;99.90
31661;DHT22;18267;52.234;7.444;2023-06-24T10:55:22;25.60;99.90
31661;DHT22;18267;52.234;7.444;2023-06-24T10:57:48;25.60;99.90
31661;DHT22;18267;52.234;7.444;2023-06-24T11:00:14;25.70;99.90
31661;DHT22;18267;52.234;7.444;2023-06-24T11:02:40;25.80;99.90
31661;DHT22;18267;52.234;7.444;2023-06-24T11:05:06;25.80;99.90
31661;DHT22;18267;52.234;7.444;2023-06-24T11:07:34;25.90;99.90
31661;DHT22;18267;52.234;7.444;2023-06-24T11:10:15;25.90;99.90
31661;DHT22;18267;52.234;7.444;2023-06-24T11:12:42;26.00;99.90
31661;DHT22;18267;52.234;7.444;2023-06-24T11:15:10;26.10;99.90
31661;DHT22;18267;52.234;7.444;2023-06-24T11:17:36;26.20;99.90
31661;DHT22;18267;52.234;7.444;2023-06-24T11:20:07;26.20;99.90
31661;DHT22;18267;52.234;7.444;2023-06-24T11:22:33;26.20;99.90
31661;DHT22;18267;52.234;7.444;2023-06-24T11:24:59;26.10;99.90
31661;DHT22;18267;52.234;7.444;2023-06-24T11:27:29;25.90;99.90
31661;DHT22;18267;52.234;7.444;2023-06-24T11:29:56;25.90;99.90
31661;DHT22;18267;52.234;7.444;2023-06-24T11:32:23;25.80;99.90
31661;DHT22;18267;52.234;7.444;2023-06-24T11:34:49;25.90;99.90
31661;DHT22;18267;52.234;7.444;2023-06-24T11:37:17;25.90;99.90
31661;DHT22;18267;52.234;7.444;2023-06-24T11:39:45;25.90;99.90
31661;DHT22;18267;52.234;7.444;2023-06-24T11:42:28;25.90;99.90
31661;DHT22;18267;52.234;7.444;2023-06-24T11:44:59;25.90;99.90
31661;DHT22;18267;52.234;7.444;2023-06-24T11:47:25;26.00;99.90
31661;DHT22;18267;52.234;7.444;2023-06-24T11:49:53;26.00;99.90
31661;DHT22;18267;52.234;7.444;2023-06-24T11:52:32;26.00;99.90
31661;DHT22;18267;52.234;7.444;2023-06-24T11:54:58;26.00;99.90
31661;DHT22;18267;52.234;7.444;2023-06-24T11:57:47;25.90;99.90
31661;DHT22;18267;52.234;7.444;2023-06-24T12:00:14;25.90;99.90
31661;DHT22;18267;52.234;7.444;2023-06-24T12:02:41;25.90;99.90
31661;DHT22;18267;52.234;7.444;2023-06-24T12:05:07;25.90;99.90
31661;DHT22;18267;52.234;7.444;2023-06-24T12:07:33;25.80;99.90
31661;DHT22;18267;52.234;7.444;2023-06-24T12:09:59;25.80;99.90
31661;DHT22;18267;52.234;7.444;2023-06-24T12:12:25;25.80;99.90
31661;DHT22;18267;52.234;7.444;2023-06-24T12:14:51;25.70;98.80
31661;DHT22;18267;52.234;7.444;2023-06-24T12:17:17;25.70;99.90
31661;DHT22;18267;52.234;7.444;2023-06-24T12:19:44;25.70;99.80
31661;DHT22;18267;52.234;7.444;2023-06-24T12:22:09;25.80;99.90
31661;DHT22;18267;52.234;7.444;2023-06-24T12:24:35;25.80;99.10
31661;DHT22;18267;52.234;7.444;2023-06-24T12:27:00;25.80;98.90
31661;DHT22;18267;52.234;7.444;2023-06-24T12:29:26;25.70;97.90
31661;DHT22;18267;52.234;7.444;2023-06-24T12:31:51;25.70;97.30
31661;DHT22;18267;52.234;7.444;2023-06-24T12:34:17;25.60;97.60
31661;DHT22;18267;52.234;7.444;2023-06-24T12:36:43;25.70;98.20
31661;DHT22;18267;52.234;7.444;2023-06-24T12:39:08;25.60;98.10
31661;DHT22;18267;52.234;7.444;2023-06-24T12:41:34;25.60;98.00
31661;DHT22;18267;52.234;7.444;2023-06-24T12:44:00;25.70;96.70
31661;DHT22;18267;52.234;7.444;2023-06-24T12:46:25;25.60;95.80
31661;DHT22;18267;52.234;7.444;2023-06-24T12:48:52;25.60;96.80
31661;DHT22;18267;52.234;7.444;2023-06-24T12:51:17;25.60;96.70
31661;DHT22;18267;52.234;7.444;2023-06-24T12:53:43;25.60;97.20
31661;DHT22;18267;52.234;7.444;2023-06-24T12:56:08;25.70;94.50
31661;DHT22;18267;52.234;7.444;2023-06-24T12:58:34;25.60;92.10
31661;DHT22;18267;52.234;7.444;2023-06-24T13:00:59;25.60;92.50
31661;DHT22;18267;52.234;7.444;2023-06-24T13:03:25;25.60;91.80
31661;DHT22;18267;52.234;7.444;2023-06-24T13:05:52;25.60;94.20
31661;DHT22;18267;52.234;7.444;2023-06-24T13:08:19;25.60;93.90
31661;DHT22;18267;52.234;7.444;2023-06-24T13:10:44;25.70;94.10
31661;DHT22;18267;52.234;7.444;2023-06-24T13:13:10;25.80;94.50
31661;DHT22;18267;52.234;7.444;2023-06-24T13:15:35;25.90;93.80
31661;DHT22;18267;52.234;7.444;2023-06-24T13:18:01;25.90;93.10
31661;DHT22;18267;52.234;7.444;2023-06-24T13:20:27;25.80;92.80
31661;DHT22;18267;52.234;7.444;2023-06-24T13:22:52;25.80;93.10
31661;DHT22;18267;52.234;7.444;2023-06-24T13:25:18;25.80;92.90
31661;DHT22;18267;52.234;7.444;2023-06-24T13:27:44;25.80;94.30
31661;DHT22;18267;52.234;7.444;2023-06-24T13:30:10;25.80;93.10
31661;DHT22;18267;52.234;7.444;2023-06-24T13:32:36;25.70;92.80
31661;DHT22;18267;52.234;7.444;2023-06-24T13:35:03;25.80;93.30
31661;DHT22;18267;52.234;7.444;2023-06-24T13:37:29;25.80;94.20
31661;DHT22;18267;52.234;7.444;2023-06-24T13:39:55;25.80;92.40
31661;DHT22;18267;52.234;7.444;2023-06-24T13:42:21;25.80;93.20
31661;DHT22;18267;52.234;7.444;2023-06-24T13:44:46;25.80;92.10
31661;DHT22;18267;52.234;7.444;2023-06-24T13:47:12;25.80;92.90
31661;DHT22;18267;52.234;7.444;2023-06-24T13:49:38;25.70;92.10
31661;DHT22;18267;52.234;7.444;2023-06-24T13:52:04;25.70;91.60
31661;DHT22;18267;52.234;7.444;2023-06-24T13:54:29;25.70;92.00
31661;DHT22;18267;52.234;7.444;2023-06-24T13:56:58;25.70;93.20
31661;DHT22;18267;52.234;7.444;2023-06-24T13:59:24;25.70;93.20
31661;DHT22;18267;52.234;7.444;2023-06-24T14:01:49;25.70;93.50
31661;DHT22;18267;52.234;7.444;2023-06-24T14:04:15;25.70;93.10
31661;DHT22;18267;52.234;7.444;2023-06-24T14:06:40;25.70;91.90
31661;DHT22;18267;52.234;7.444;2023-06-24T14:09:06;25.70;92.70
31661;DHT22;18267;52.234;7.444;2023-06-24T14:11:32;25.80;93.50
31661;DHT22;18267;52.234;7.444;2023-06-24T14:13:57;25.90;93.30
31661;DHT22;18267;52.234;7.444;2023-06-24T14:16:23;25.90;93.30
31661;DHT22;18267;52.234;7.444;2023-06-24T14:18:49;25.80;93.00
31661;DHT22;18267;52.234;7.444;2023-06-24T14:21:14;25.90;92.30
31661;DHT22;18267;52.234;7.444;2023-06-24T14:23:40;25.90;91.60
31661;DHT22;18267;52.234;7.444;2023-06-24T14:26:06;25.90;91.60
31661;DHT22;18267;52.234;7.444;2023-06-24T14:28:31;25.90;91.40
31661;DHT22;18267;52.234;7.444;2023-06-24T14:30:57;25.80;91.90
31661;DHT22;18267;52.234;7.444;2023-06-24T14:33:23;25.80;92.10
31661;DHT22;18267;52.234;7.444;2023-06-24T14:35:48;25.90;93.30
31661;DHT22;18267;52.234;7.444;2023-06-24T14:38:14;25.90;93.70
31661;DHT22;18267;52.234;7.444;2023-06-24T14:40:40;26.00;94.20
31661;DHT22;18267;52.234;7.444;2023-06-24T14:43:05;26.00;93.30
31661;DHT22;18267;52.234;7.444;2023-06-24T14:45:31;26.00;93.60
31661;DHT22;18267;52.234;7.444;2023-06-24T14:47:57;26.00;92.90
31661;DHT22;18267;52.234;7.444;2023-06-24T14:50:23;26.10;90.90
31661;DHT22;18267;52.234;7.444;2023-06-24T14:52:49;26.00;90.20
31661;DHT22;18267;52.234;7.444;2023-06-24T14:55:14;26.00;90.40
31661;DHT22;18267;52.234;7.444;2023-06-24T14:57:40;26.00;91.30
31661;DHT22;18267;52.234;7.444;2023-06-24T15:00:07;26.00;91.60
31661;DHT22;18267;52.234;7.444;2023-06-24T15:02:33;25.90;92.30
31661;DHT22;18267;52.234;7.444;2023-06-24T15:04:59;25.80;91.50
31661;DHT22;18267;52.234;7.444;2023-06-24T15:07:24;25.80;91.60
31661;DHT22;18267;52.234;7.444;2023-06-24T15:09:50;25.80;90.00
31661;DHT22;18267;52.234;7.444;2023-06-24T15:12:15;25.80;90.40
31661;DHT22;18267;52.234;7.444;2023-06-24T15:14:41;25.70;91.00
31661;DHT22;18267;52.234;7.444;2023-06-24T15:17:08;25.70;91.00
31661;DHT22;18267;52.234;7.444;2023-06-24T15:19:34;25.80;90.30
31661;DHT22;18267;52.234;7.444;2023-06-24T15:21:59;25.80;89.10
31661;DHT22;18267;52.234;7.444;2023-06-24T15:24:25;25.80;90.90
31661;DHT22;18267;52.234;7.444;2023-06-24T15:26:50;25.80;90.50
31661;DHT22;18267;52.234;7.444;2023-06-24T15:29:16;25.90;91.80
31661;DHT22;18267;52.234;7.444;2023-06-24T15:31:41;25.80;91.50
31661;DHT22;18267;52.234;7.444;2023-06-24T15:34:07;26.00;90.70
31661;DHT22;18267;52.234;7.444;2023-06-24T15:36:35;26.00;90.80
31661;DHT22;18267;52.234;7.444;2023-06-24T15:39:00;26.00;90.00
31661;DHT22;18267;52.234;7.444;2023-06-24T15:41:26;26.00;90.20